Airfield :
LOGIN :

Register | Disclaimer

   EN    FR    IT 

 










Legend :    VFR   Marginal VFR   IFR   Intensive IFR   Very Intensive IFR
Visi :
Ceiling :
>= 8 km
>= 3000ft
5 to 8 km
1000 to 3000 ft
1500m to 5 km
500 to 1000 ft
800 to 1500m
200 to 500 ft
< 800m
< 200 ft
Symbols :   Thunderstorms  Fog  Heavy snow  Heavy precipitations  Wind > 20 kt
SIGMETs :     Misc.  Thunderstorms  Icing  Turbulence  Mountain Waves  Volcanic Ashes







- Airport Elevation : 245 ft
- IATA code : BIQ
- Download approach charts


LFBZ - Biarritz

CURRENT METAR :
  • 240830Z AUTO 09004KT 050V130 9999 FEW019 BKN046 BKN058 22/16 Q1022 BECMG 33010KT

EXPIRED METARs :
  • 240800Z AUTO VRB03KT 9999 OVC044 21/16 Q1022 NOSIG
  • 240730Z AUTO 08003KT 050V120 9999 OVC045 20/16 Q1022 NOSIG
  • 240700Z AUTO VRB03KT 9999 OVC042 20/16 Q1022 NOSIG
  • 240630Z AUTO 09002KT 9999 OVC041 19/16 Q1022 NOSIG
  • 240600Z AUTO 11003KT 080V140 9999 OVC041 19/17 Q1022 NOSIG
  • 240530Z AUTO 10004KT 9999 OVC040 19/16 Q1022 NOSIG

TAF TAF LFBZ
Valid from the 23 at 18:00 until the 24 at 18:00 UTC


231700Z 2318/2418 33010KT 9999 BKN025
BECMG 2318/2320 OVC014
PROB30
TEMPO 2322/2409 4000 -DZ BR OVC005
BECMG 2410/2413 SCT030
No reported NOTAMs for that airfield.



MET'MAP, your aeronautical weather chart ! - Copyright ORBIFLY December 2007 - Disclaimer

ORBIFLY MET'MAP TEAM :

Programming & Development : Alexandra Zaïnal
Concept & Development : Baudouin d'Aumeries
Co-Development & Prog : Marc-Olivier Méhu
Technical & hardware support : Manuel Goepfert

Contact : metmap@orbifly.com




SOURCES & CREDITS :

   NOAA